createdAt,value
2019-03-11T00:01:12.191Z,14.47
2019-03-11T00:03:17.356Z,14.53
2019-03-11T00:05:22.204Z,16.73
2019-03-11T00:07:27.026Z,15.50
2019-03-11T00:09:34.728Z,14.70
2019-03-11T00:11:39.268Z,14.23
2019-03-11T00:13:43.779Z,14.20
2019-03-11T00:15:48.859Z,14.10
2019-03-11T00:17:53.253Z,15.00
2019-03-11T00:19:58.125Z,16.37
2019-03-11T00:22:02.846Z,13.97
2019-03-11T00:24:09.874Z,12.23
2019-03-11T00:26:15.591Z,13.60
2019-03-11T00:28:20.020Z,11.73
2019-03-11T00:30:26.175Z,15.60
2019-03-11T00:32:31.204Z,14.97
2019-03-11T00:34:35.551Z,12.57
2019-03-11T00:36:40.118Z,13.17
2019-03-11T00:38:44.808Z,14.07
2019-03-11T00:40:49.511Z,13.60
2019-03-11T00:42:53.825Z,13.10
2019-03-11T00:44:58.959Z,12.23
2019-03-11T00:47:03.383Z,12.50
2019-03-11T00:49:07.916Z,12.87
2019-03-11T00:51:12.703Z,11.60
2019-03-11T00:53:17.223Z,12.10
2019-03-11T00:55:21.633Z,10.97
2019-03-11T00:57:27.029Z,11.47
2019-03-11T00:59:31.617Z,11.87
2019-03-11T01:01:37.640Z,10.83
2019-03-11T01:03:42.580Z,10.90
2019-03-11T01:05:47.737Z,10.50
2019-03-11T01:07:52.784Z,9.47
2019-03-11T01:09:58.065Z,11.57
2019-03-11T01:12:02.864Z,11.00
2019-03-11T01:14:07.794Z,8.80
2019-03-11T01:16:12.712Z,9.20
2019-03-11T01:18:17.487Z,9.53
2019-03-11T01:20:22.025Z,9.33
2019-03-11T01:22:26.749Z,9.00
2019-03-11T01:24:31.157Z,9.20
2019-03-11T01:26:35.681Z,10.53
2019-03-11T01:28:40.430Z,9.53
2019-03-11T01:30:44.825Z,8.80
2019-03-11T01:32:49.398Z,8.77
2019-03-11T01:34:54.237Z,8.53
2019-03-11T01:36:59.086Z,8.57
2019-03-11T01:39:05.960Z,7.70
2019-03-11T01:41:11.199Z,8.20
2019-03-11T01:43:15.738Z,7.20
2019-03-11T01:45:20.351Z,8.17
2019-03-11T01:47:25.230Z,7.87
2019-03-11T01:49:32.413Z,7.37
2019-03-11T01:51:36.983Z,7.77
2019-03-11T01:53:42.435Z,7.37
2019-03-11T01:55:47.113Z,8.90
2019-03-11T01:57:52.114Z,7.37
2019-03-11T01:59:56.999Z,9.73
2019-03-11T02:02:01.445Z,7.07
2019-03-11T02:04:06.117Z,7.47
2019-03-11T02:06:10.703Z,8.57
2019-03-11T02:08:15.053Z,8.37
2019-03-11T02:10:20.111Z,8.13
2019-03-11T02:12:25.046Z,8.07
2019-03-11T02:14:29.469Z,9.00
2019-03-11T02:16:34.703Z,7.57
2019-03-11T02:18:39.657Z,7.30
2019-03-11T02:20:44.284Z,7.67
2019-03-11T02:22:48.795Z,7.53
2019-03-11T02:24:53.574Z,7.67
2019-03-11T02:26:58.090Z,7.80
2019-03-11T02:29:02.840Z,7.50
2019-03-11T02:31:07.687Z,8.63
2019-03-11T02:33:12.107Z,7.07
2019-03-11T02:35:28.574Z,7.20
2019-03-11T02:37:33.277Z,6.33
2019-03-11T02:39:37.492Z,6.50
2019-03-11T02:41:42.279Z,7.00
2019-03-11T02:43:47.184Z,7.40
2019-03-11T02:45:52.025Z,6.40
2019-03-11T02:47:56.331Z,7.03
2019-03-11T02:50:01.312Z,6.30
2019-03-11T02:52:05.974Z,6.00
2019-03-11T02:54:10.348Z,8.07
2019-03-11T02:56:14.871Z,6.23
2019-03-11T02:58:19.671Z,8.00
2019-03-11T03:00:26.298Z,5.90
2019-03-11T03:02:57.065Z,7.40
2019-03-11T03:05:13.551Z,6.10
2019-03-11T03:07:20.168Z,7.03
2019-03-11T03:09:24.398Z,6.50
2019-03-11T03:11:29.139Z,6.03
2019-03-11T03:13:33.470Z,5.50
2019-03-11T03:15:38.541Z,7.80
2019-03-11T03:17:43.773Z,5.40
2019-03-11T03:19:48.480Z,4.93
2019-03-11T03:21:52.864Z,6.13
2019-03-11T03:23:57.073Z,6.20
2019-03-11T03:26:01.250Z,5.17
2019-03-11T03:28:05.722Z,5.30
2019-03-11T03:30:12.603Z,5.13
2019-03-11T03:32:17.125Z,5.90
2019-03-11T03:34:21.642Z,5.00
2019-03-11T03:36:26.250Z,4.90
2019-03-11T03:38:31.494Z,5.57
2019-03-11T03:40:36.196Z,6.13
2019-03-11T03:42:40.689Z,4.77
2019-03-11T03:45:13.611Z,4.70
2019-03-11T03:47:18.211Z,5.37
2019-03-11T03:49:22.591Z,5.80
2019-03-11T03:51:27.162Z,4.60
2019-03-11T03:53:31.403Z,4.50
2019-03-11T03:55:36.275Z,4.13
2019-03-11T03:57:40.546Z,4.50
2019-03-11T03:59:45.040Z,4.60
2019-03-11T04:01:49.572Z,5.13
2019-03-11T04:03:53.739Z,5.23
2019-03-11T04:05:57.906Z,4.13
2019-03-11T04:08:02.580Z,5.57
2019-03-11T04:10:07.348Z,5.70
2019-03-11T04:12:11.617Z,4.93
2019-03-11T04:14:16.566Z,6.47
2019-03-11T04:16:20.674Z,6.50
2019-03-11T04:18:25.144Z,6.70
2019-03-11T04:20:29.413Z,6.67
2019-03-11T04:22:33.574Z,6.80
2019-03-11T04:24:39.025Z,7.37
2019-03-11T04:26:43.687Z,7.53
2019-03-11T04:28:48.466Z,7.43
2019-03-11T04:30:52.640Z,7.20
2019-03-11T04:32:56.741Z,6.97
2019-03-11T04:35:01.262Z,6.90
2019-03-11T04:37:05.409Z,6.17
2019-03-11T04:39:09.959Z,6.90
2019-03-11T04:41:14.770Z,6.63
2019-03-11T04:43:19.744Z,6.43
2019-03-11T04:45:24.238Z,7.67
2019-03-11T04:47:28.588Z,6.13
2019-03-11T04:49:33.188Z,6.07
2019-03-11T04:51:37.621Z,6.43
2019-03-11T04:53:42.374Z,6.33
2019-03-11T04:55:48.442Z,6.37
2019-03-11T04:57:53.705Z,6.20
2019-03-11T04:59:58.140Z,5.60
2019-03-11T05:02:06.203Z,6.83
2019-03-11T05:04:10.722Z,5.20
2019-03-11T05:06:15.133Z,5.10
2019-03-11T05:08:20.117Z,5.60
2019-03-11T05:10:33.647Z,4.93
2019-03-11T05:12:41.554Z,6.17
2019-03-11T05:14:46.357Z,5.10
2019-03-11T05:16:50.899Z,5.40
2019-03-11T05:18:56.174Z,5.20
2019-03-11T05:21:01.004Z,5.17
2019-03-11T05:23:05.782Z,5.03
2019-03-11T05:25:11.555Z,4.90
2019-03-11T05:27:16.188Z,4.33
2019-03-11T05:29:20.587Z,4.23
2019-03-11T05:31:25.039Z,4.00
2019-03-11T05:33:31.240Z,4.30
2019-03-11T05:35:35.478Z,4.20
2019-03-11T05:37:39.843Z,4.00
2019-03-11T05:39:48.314Z,3.90
2019-03-11T05:41:53.518Z,4.10
2019-03-11T05:43:58.707Z,3.43
2019-03-11T05:46:05.441Z,4.10
2019-03-11T05:48:09.893Z,4.40
2019-03-11T05:50:14.457Z,3.83
2019-03-11T05:52:18.813Z,3.90
2019-03-11T05:54:23.509Z,3.57
2019-03-11T05:56:27.906Z,3.30
2019-03-11T05:58:32.531Z,3.07
2019-03-11T06:00:36.732Z,3.37
2019-03-11T06:02:40.890Z,3.40
2019-03-11T06:04:45.483Z,2.93
2019-03-11T06:06:49.864Z,3.10
2019-03-11T06:08:54.020Z,3.73
2019-03-11T06:10:58.551Z,3.40
2019-03-11T06:13:04.542Z,3.43
2019-03-11T06:15:09.339Z,3.30
2019-03-11T06:17:13.548Z,3.10
2019-03-11T06:19:18.617Z,3.20
2019-03-11T06:21:34.190Z,2.97
2019-03-11T06:23:38.695Z,2.93
2019-03-11T06:25:42.962Z,3.13
2019-03-11T06:27:49.970Z,3.50
2019-03-11T06:29:54.767Z,3.60
2019-03-11T06:31:59.306Z,2.60
2019-03-11T06:34:03.592Z,3.13
2019-03-11T06:36:08.295Z,2.90
2019-03-11T06:38:12.814Z,3.33
2019-03-11T06:40:17.167Z,9.23
2019-03-11T06:42:22.144Z,149.97
2019-03-11T06:44:26.300Z,358.50
2019-03-11T06:46:30.614Z,566.97
2019-03-11T06:48:35.710Z,1093.93
2019-03-11T06:50:40.715Z,1151.17
2019-03-11T06:52:44.996Z,602.13
2019-03-11T06:54:49.695Z,258.70
2019-03-11T06:56:53.984Z,139.23
2019-03-11T06:59:00.249Z,47.37
2019-03-11T07:01:05.164Z,20.40
2019-03-11T07:03:10.594Z,23.07
2019-03-11T07:05:20.166Z,17.90
2019-03-11T07:07:21.521Z,10.70
2019-03-11T07:09:25.809Z,7.23
2019-03-11T07:11:30.074Z,9.27
2019-03-11T07:13:34.892Z,6.40
2019-03-11T07:15:39.229Z,31.97
2019-03-11T07:17:47.131Z,308.83
2019-03-11T07:19:51.735Z,352.90
2019-03-11T07:21:56.175Z,383.20
2019-03-11T07:24:00.477Z,361.13
2019-03-11T07:26:07.276Z,369.33
2019-03-11T07:28:14.235Z,358.30
2019-03-11T07:30:18.501Z,355.47
2019-03-11T07:32:23.506Z,426.20
2019-03-11T07:34:28.137Z,481.17
2019-03-11T07:36:34.182Z,513.07
2019-03-11T07:38:38.583Z,525.60
2019-03-11T07:40:44.319Z,526.63
2019-03-11T07:42:51.299Z,530.83
2019-03-11T07:44:55.451Z,645.83
2019-03-11T07:47:00.346Z,737.90
2019-03-11T07:49:05.565Z,693.57
2019-03-11T07:51:10.381Z,670.23
2019-03-11T07:53:14.615Z,668.77
2019-03-11T07:55:18.975Z,668.07
2019-03-11T07:57:23.675Z,643.40
2019-03-11T07:59:28.640Z,622.43
2019-03-11T08:01:33.209Z,675.93
2019-03-11T08:03:37.563Z,1140.73
2019-03-11T08:05:42.110Z,742.93
2019-03-11T08:07:46.354Z,779.23
2019-03-11T08:09:50.861Z,745.40
2019-03-11T08:11:55.465Z,727.03
2019-03-11T08:13:59.824Z,727.93
2019-03-11T08:16:04.860Z,749.27
2019-03-11T08:18:11.137Z,864.80
2019-03-11T08:20:16.310Z,965.83
2019-03-11T08:22:20.841Z,810.73
2019-03-11T08:24:26.196Z,854.70
2019-03-11T08:26:31.163Z,815.10
2019-03-11T08:28:35.502Z,786.60
2019-03-11T08:30:41.823Z,780.43
2019-03-11T08:32:46.223Z,768.53
2019-03-11T08:34:55.609Z,751.83
2019-03-11T08:37:01.234Z,754.03
2019-03-11T08:39:07.366Z,733.10
2019-03-11T08:41:11.872Z,752.07
2019-03-11T08:43:20.038Z,782.20
2019-03-11T08:45:24.875Z,765.03
2019-03-11T08:47:29.173Z,1255.53
2019-03-11T08:49:33.591Z,877.87
2019-03-11T08:51:39.411Z,857.20
2019-03-11T08:53:44.717Z,833.80
2019-03-11T08:55:49.252Z,1144.20
2019-03-11T08:57:54.184Z,853.77
2019-03-11T08:59:58.551Z,784.50
2019-03-11T09:02:03.115Z,758.60
2019-03-11T09:04:07.721Z,840.70
2019-03-11T09:06:12.368Z,1999.90
2019-03-11T09:08:17.143Z,957.07
2019-03-11T09:10:21.360Z,818.00
2019-03-11T09:12:25.762Z,773.77
2019-03-11T09:14:30.037Z,886.37
2019-03-11T09:16:35.017Z,723.80
2019-03-11T09:18:39.552Z,1823.33
2019-03-11T09:20:44.400Z,817.70
2019-03-11T09:22:49.463Z,707.60
2019-03-11T09:24:53.646Z,671.33
2019-03-11T09:26:58.991Z,665.23
2019-03-11T09:29:03.243Z,1489.53
2019-03-11T09:31:07.618Z,634.47
2019-03-11T09:33:12.664Z,1196.47
2019-03-11T09:35:16.974Z,828.43
2019-03-11T09:37:21.317Z,1157.20
2019-03-11T09:39:25.556Z,894.10
2019-03-11T09:41:29.793Z,831.17
2019-03-11T09:43:34.036Z,760.93
2019-03-11T09:45:38.569Z,577.27
2019-03-11T09:47:42.708Z,641.10
2019-03-11T09:49:47.275Z,579.23
2019-03-11T09:51:52.039Z,481.80
2019-03-11T09:53:56.259Z,410.23
2019-03-11T09:56:00.418Z,318.33
2019-03-11T09:58:05.394Z,312.90
2019-03-11T10:00:17.755Z,237.63
2019-03-11T10:02:21.998Z,181.43
2019-03-11T10:04:26.691Z,181.07
2019-03-11T10:06:30.927Z,387.63
2019-03-11T10:08:35.133Z,549.73
2019-03-11T10:10:40.713Z,450.30
2019-03-11T10:12:45.209Z,338.17
2019-03-11T10:14:49.711Z,237.90
2019-03-11T10:16:54.372Z,220.20
2019-03-11T10:18:58.666Z,771.83
2019-03-11T10:21:02.981Z,372.73
2019-03-11T10:23:07.756Z,332.77
2019-03-11T10:25:12.035Z,190.67
2019-03-11T10:27:16.277Z,176.83
2019-03-11T10:29:20.912Z,153.83
2019-03-11T10:31:25.345Z,217.57
2019-03-11T10:33:29.539Z,216.00
2019-03-11T10:35:33.699Z,354.43
2019-03-11T10:37:37.845Z,350.30
2019-03-11T10:39:42.213Z,272.83
2019-03-11T10:41:46.806Z,215.03
2019-03-11T10:43:51.005Z,181.80
2019-03-11T10:45:55.287Z,135.80
2019-03-11T10:48:00.273Z,332.20
2019-03-11T10:50:04.956Z,133.10
2019-03-11T10:52:09.167Z,128.20
2019-03-11T10:54:13.630Z,237.47
2019-03-11T10:56:18.117Z,356.57
2019-03-11T10:58:22.502Z,132.80
2019-03-11T11:00:27.095Z,509.27
2019-03-11T11:02:31.551Z,1085.57
2019-03-11T11:04:36.119Z,105.93
2019-03-11T11:06:40.857Z,46.93
2019-03-11T11:08:45.150Z,471.13
2019-03-11T11:10:49.500Z,123.27
2019-03-11T11:12:54.075Z,394.43
2019-03-11T11:14:58.218Z,461.87
2019-03-11T11:17:02.781Z,358.33
2019-03-11T11:19:07.479Z,68.03
2019-03-11T11:21:11.667Z,38.17
2019-03-11T11:23:16.124Z,468.63
2019-03-11T11:25:20.973Z,79.73
2019-03-11T11:27:25.291Z,445.10
2019-03-11T11:29:29.747Z,69.97
2019-03-11T11:31:35.046Z,623.03
2019-03-11T11:33:39.832Z,370.00
2019-03-11T11:35:44.452Z,508.17
2019-03-11T11:37:49.448Z,356.23
2019-03-11T11:39:55.265Z,299.10
2019-03-11T11:41:59.580Z,237.20
2019-03-11T11:44:04.589Z,183.63
2019-03-11T11:46:09.332Z,158.63
2019-03-11T11:48:13.866Z,125.27
2019-03-11T11:50:19.398Z,112.17
2019-03-11T11:52:23.561Z,97.40
2019-03-11T11:54:28.261Z,75.60
2019-03-11T11:56:32.600Z,74.37
2019-03-11T11:58:37.003Z,465.63
2019-03-11T12:00:44.027Z,321.33
2019-03-11T12:02:48.913Z,355.27
2019-03-11T12:04:53.339Z,315.33
2019-03-11T12:06:57.567Z,306.53
2019-03-11T12:09:02.166Z,236.53
2019-03-11T12:11:06.315Z,195.83
2019-03-11T12:13:10.504Z,172.20
2019-03-11T12:15:15.207Z,151.70
2019-03-11T12:17:19.426Z,131.27
2019-03-11T12:19:23.829Z,100.60
2019-03-11T12:21:28.643Z,81.60
2019-03-11T12:23:33.142Z,67.13
2019-03-11T12:25:37.710Z,69.07
2019-03-11T12:27:52.775Z,56.33
2019-03-11T12:29:48.654Z,62.87
2019-03-11T12:31:52.882Z,45.27
2019-03-11T12:33:57.347Z,43.60
2019-03-11T12:36:01.561Z,31.57
2019-03-11T12:38:05.835Z,35.77
2019-03-11T12:40:10.905Z,671.80
2019-03-11T12:42:15.155Z,151.37
2019-03-11T12:44:19.302Z,88.10
2019-03-11T12:46:24.358Z,94.30
2019-03-11T12:48:28.933Z,61.40
2019-03-11T12:50:33.826Z,152.47
2019-03-11T12:52:38.662Z,378.43
2019-03-11T12:54:43.508Z,292.90
2019-03-11T12:56:50.019Z,204.60
2019-03-11T12:58:53.982Z,1659.73
2019-03-11T13:00:58.168Z,1079.20
2019-03-11T13:03:03.520Z,679.80
2019-03-11T13:05:08.347Z,564.40
2019-03-11T13:07:12.602Z,428.27
2019-03-11T13:09:17.109Z,1648.00
2019-03-11T13:11:22.005Z,667.27
2019-03-11T13:13:26.254Z,669.57
2019-03-11T13:15:30.712Z,597.10
2019-03-11T13:17:35.616Z,1386.50
2019-03-11T13:19:40.657Z,1727.07
2019-03-11T13:21:46.209Z,827.07
2019-03-11T13:23:50.655Z,623.87
2019-03-11T13:25:54.807Z,492.67
2019-03-11T13:27:59.371Z,1020.97
2019-03-11T13:30:06.143Z,520.57
2019-03-11T13:32:10.316Z,1992.37
2019-03-11T13:34:14.738Z,638.73
2019-03-11T13:36:20.088Z,847.40
2019-03-11T13:38:24.696Z,653.20
2019-03-11T13:40:28.987Z,994.57
2019-03-11T13:42:33.557Z,1122.17
2019-03-11T13:44:37.763Z,843.57
2019-03-11T13:46:41.952Z,806.33
2019-03-11T13:48:46.587Z,1868.57
2019-03-11T13:50:50.785Z,709.27
2019-03-11T13:52:55.043Z,974.80
2019-03-11T13:55:09.775Z,804.40
2019-03-11T13:57:06.264Z,728.43
2019-03-11T13:59:10.383Z,868.40
2019-03-11T14:01:15.306Z,790.13
2019-03-11T14:03:19.525Z,652.17
2019-03-11T14:05:23.745Z,373.67
2019-03-11T14:07:28.376Z,814.13
2019-03-11T14:09:32.559Z,557.63
2019-03-11T14:11:37.028Z,329.97
2019-03-11T14:13:41.697Z,175.00
2019-03-11T14:15:46.129Z,215.43
2019-03-11T14:17:50.654Z,366.93
2019-03-11T14:19:55.351Z,220.53
2019-03-11T14:21:59.555Z,365.77
2019-03-11T14:24:06.766Z,223.77
2019-03-11T14:26:11.104Z,236.07
2019-03-11T14:28:15.395Z,246.20
2019-03-11T14:30:19.973Z,1107.30
2019-03-11T14:32:27.692Z,449.13
2019-03-11T14:34:32.380Z,435.13
2019-03-11T14:36:52.323Z,381.23
2019-03-11T14:38:58.061Z,656.93
2019-03-11T14:41:03.775Z,1999.90
2019-03-11T14:43:08.504Z,576.17
2019-03-11T14:45:14.124Z,475.97
2019-03-11T14:47:19.299Z,402.80
2019-03-11T14:49:23.536Z,293.80
2019-03-11T14:51:28.383Z,303.80
2019-03-11T14:53:32.595Z,554.50
2019-03-11T14:55:37.512Z,451.43
2019-03-11T14:57:42.411Z,1397.80
2019-03-11T14:59:46.807Z,586.33
2019-03-11T15:01:52.590Z,1312.53
2019-03-11T15:03:57.496Z,548.50
2019-03-11T15:06:01.678Z,839.30
2019-03-11T15:08:05.984Z,555.97
2019-03-11T15:10:13.281Z,534.00
2019-03-11T15:12:17.568Z,432.83
2019-03-11T15:14:21.791Z,321.17
2019-03-11T15:16:26.722Z,259.40
2019-03-11T15:18:30.944Z,677.23
2019-03-11T15:20:35.295Z,223.43
2019-03-11T15:22:39.726Z,1459.30
2019-03-11T15:24:44.175Z,257.63
2019-03-11T15:26:48.573Z,293.70
2019-03-11T15:28:53.422Z,215.23
2019-03-11T15:30:57.895Z,436.80
2019-03-11T15:33:02.536Z,426.17
2019-03-11T15:35:07.792Z,512.40
2019-03-11T15:37:12.879Z,654.20
2019-03-11T15:39:17.847Z,694.77
2019-03-11T15:41:22.444Z,585.27
2019-03-11T15:43:26.922Z,505.83
2019-03-11T15:45:38.645Z,482.87
2019-03-11T15:47:37.427Z,479.20
2019-03-11T15:49:41.972Z,467.20
2019-03-11T15:51:46.631Z,465.97
2019-03-11T15:53:51.515Z,685.53
2019-03-11T15:55:57.151Z,477.60
2019-03-11T15:58:03.461Z,499.80
2019-03-11T16:00:11.594Z,1999.90
2019-03-11T16:02:17.891Z,513.27
2019-03-11T16:04:23.783Z,935.33
2019-03-11T16:06:32.875Z,527.23
2019-03-11T16:08:41.958Z,507.17
2019-03-11T16:10:46.361Z,428.87
2019-03-11T16:12:51.281Z,384.17
2019-03-11T16:14:56.133Z,370.50
2019-03-11T16:17:00.899Z,330.17
2019-03-11T16:19:06.183Z,327.07
2019-03-11T16:21:11.417Z,313.97
2019-03-11T16:23:18.526Z,293.90
2019-03-11T16:25:24.005Z,288.63
2019-03-11T16:27:28.680Z,267.60
2019-03-11T16:29:33.157Z,259.90
2019-03-11T16:31:38.114Z,258.87
2019-03-11T16:33:48.717Z,261.70
2019-03-11T16:35:54.323Z,231.40
2019-03-11T16:37:59.264Z,224.07
2019-03-11T16:40:06.919Z,221.43
2019-03-11T16:42:11.593Z,215.30
2019-03-11T16:44:16.574Z,209.00
2019-03-11T16:46:21.181Z,197.00
2019-03-11T16:48:28.517Z,195.20
2019-03-11T16:50:34.250Z,188.80
2019-03-11T16:52:42.043Z,186.77
2019-03-11T16:54:46.495Z,167.90
2019-03-11T16:56:52.263Z,161.57
2019-03-11T16:59:00.471Z,161.20
2019-03-11T17:01:09.574Z,159.70
2019-03-11T17:03:16.659Z,155.80
2019-03-11T17:05:24.789Z,143.03
2019-03-11T17:07:32.555Z,143.60
2019-03-11T17:09:42.338Z,139.30
2019-03-11T17:11:48.110Z,133.50
2019-03-11T17:13:54.241Z,124.40
2019-03-11T17:16:03.468Z,130.23
2019-03-11T17:18:13.542Z,121.67
2019-03-11T17:20:21.535Z,128.77
2019-03-11T17:22:31.496Z,123.00
2019-03-11T17:24:44.238Z,121.23
2019-03-11T17:26:49.348Z,119.43
2019-03-11T17:28:59.288Z,112.17
2019-03-11T17:31:09.242Z,113.90
2019-03-11T17:33:19.692Z,115.63
2019-03-11T17:35:26.213Z,107.70
2019-03-11T17:37:31.803Z,102.70
2019-03-11T17:39:38.011Z,107.17
2019-03-11T17:41:44.149Z,102.13
2019-03-11T17:43:50.604Z,102.97
2019-03-11T17:45:55.686Z,100.63
2019-03-11T17:48:02.129Z,96.30
2019-03-11T17:50:08.327Z,94.63
2019-03-11T17:52:13.279Z,87.60
2019-03-11T17:54:18.557Z,90.13
2019-03-11T17:56:24.115Z,89.20
2019-03-11T17:58:29.447Z,92.40
2019-03-11T18:00:34.252Z,88.10
2019-03-11T18:02:38.985Z,79.70
2019-03-11T18:04:49.386Z,82.60
2019-03-11T18:09:22.573Z,79.63
2019-03-11T18:11:27.784Z,76.60
2019-03-11T18:13:32.279Z,76.63
2019-03-11T18:15:37.038Z,81.27
2019-03-11T18:17:42.031Z,77.77
2019-03-11T18:19:46.330Z,72.57
2019-03-11T18:21:51.050Z,72.43
2019-03-11T18:23:57.895Z,71.07
2019-03-11T18:26:05.892Z,69.70
2019-03-11T18:28:11.025Z,65.23
2019-03-11T18:30:18.487Z,62.27
2019-03-11T18:32:23.446Z,59.33
2019-03-11T18:34:32.501Z,183.23
2019-03-11T18:36:37.401Z,444.87
2019-03-11T18:38:42.440Z,530.23
2019-03-11T18:40:46.924Z,660.63
2019-03-11T18:42:51.731Z,577.33
2019-03-11T18:44:56.093Z,511.97
2019-03-11T18:47:00.393Z,507.87
2019-03-11T18:49:05.863Z,489.50
2019-03-11T18:51:11.330Z,477.87
2019-03-11T18:53:15.834Z,459.27
2019-03-11T18:55:21.728Z,481.37
2019-03-11T18:57:26.076Z,772.80
2019-03-11T18:59:31.172Z,761.37
2019-03-11T19:01:36.467Z,717.80
2019-03-11T19:03:43.079Z,711.07
2019-03-11T19:05:49.859Z,656.40
2019-03-11T19:07:55.608Z,624.17
2019-03-11T19:10:07.325Z,605.17
2019-03-11T19:12:11.582Z,586.23
2019-03-11T19:14:15.798Z,574.23
2019-03-11T19:16:22.387Z,752.27
2019-03-11T19:18:27.878Z,780.87
2019-03-11T19:20:33.973Z,729.33
2019-03-11T19:22:38.763Z,727.90
2019-03-11T19:24:44.252Z,728.17
2019-03-11T19:26:52.753Z,667.53
2019-03-11T19:28:57.815Z,651.13
2019-03-11T19:31:02.575Z,647.63
2019-03-11T19:33:07.352Z,630.17
2019-03-11T19:35:11.953Z,652.47
2019-03-11T19:37:17.205Z,630.37
2019-03-11T19:39:21.930Z,1217.10
2019-03-11T19:41:27.131Z,1125.70
2019-03-11T19:43:32.817Z,914.10
2019-03-11T19:45:45.144Z,800.37
2019-03-11T19:47:50.067Z,653.90
2019-03-11T19:49:57.275Z,573.70
2019-03-11T19:52:10.163Z,672.63
2019-03-11T19:54:16.777Z,614.20
2019-03-11T19:56:27.555Z,939.03
2019-03-11T19:58:34.133Z,813.83
2019-03-11T20:00:49.389Z,726.87
2019-03-11T20:02:54.574Z,627.63
2019-03-11T20:05:00.010Z,928.33
2019-03-11T20:07:07.177Z,540.80
2019-03-11T20:09:14.558Z,708.77
2019-03-11T20:11:20.035Z,638.43
2019-03-11T20:13:24.467Z,724.40
2019-03-11T20:15:29.589Z,496.07
2019-03-11T20:17:34.516Z,559.87
2019-03-11T20:19:39.677Z,1297.23
2019-03-11T20:21:44.166Z,560.27
2019-03-11T20:23:49.079Z,443.87
2019-03-11T20:25:53.997Z,461.23
2019-03-11T20:27:58.283Z,550.00
2019-03-11T20:30:03.895Z,848.60
2019-03-11T20:32:08.215Z,467.17
2019-03-11T20:34:13.055Z,587.87
2019-03-11T20:36:21.311Z,541.23
2019-03-11T20:38:23.988Z,635.27
2019-03-11T20:40:28.855Z,611.50
2019-03-11T20:42:34.394Z,656.70
2019-03-11T20:44:39.194Z,617.33
2019-03-11T20:46:43.985Z,1000.73
2019-03-11T20:48:48.621Z,967.30
2019-03-11T20:50:53.025Z,651.70
2019-03-11T20:52:57.535Z,1086.53
2019-03-11T20:55:01.890Z,745.87
2019-03-11T20:57:06.663Z,855.90
2019-03-11T20:59:11.181Z,581.50
2019-03-11T21:01:16.580Z,495.87
2019-03-11T21:03:21.118Z,464.03
2019-03-11T21:05:27.348Z,443.67
2019-03-11T21:07:32.253Z,423.23
2019-03-11T21:09:36.572Z,396.40
2019-03-11T21:11:41.140Z,391.27
2019-03-11T21:13:45.973Z,385.43
2019-03-11T21:15:50.228Z,518.60
2019-03-11T21:17:54.513Z,694.37
2019-03-11T21:19:58.954Z,731.97
2019-03-11T21:22:03.296Z,701.33
2019-03-11T21:24:08.384Z,586.53
2019-03-11T21:26:13.438Z,546.07
2019-03-11T21:28:18.963Z,535.07
2019-03-11T21:30:23.210Z,518.77
2019-03-11T21:32:28.064Z,556.93
2019-03-11T21:34:33.319Z,678.23
2019-03-11T21:36:37.786Z,736.93
2019-03-11T21:38:42.356Z,728.13
2019-03-11T21:40:46.769Z,696.73
2019-03-11T21:42:51.971Z,668.57
2019-03-11T21:44:56.694Z,1107.30
2019-03-11T21:47:01.331Z,778.67
2019-03-11T21:49:08.468Z,697.57
2019-03-11T21:51:13.663Z,647.97
2019-03-11T21:53:18.133Z,627.87
2019-03-11T21:55:23.231Z,604.97
2019-03-11T21:57:27.854Z,589.60
2019-03-11T21:59:32.212Z,587.30
2019-03-11T22:01:36.741Z,589.73
2019-03-11T22:03:42.036Z,642.00
2019-03-11T22:05:46.670Z,712.93
2019-03-11T22:07:50.930Z,781.83
2019-03-11T22:09:55.784Z,1142.17
2019-03-11T22:12:00.777Z,872.47
2019-03-11T22:14:08.433Z,789.53
2019-03-11T22:16:13.541Z,728.73
2019-03-11T22:18:17.893Z,692.07
2019-03-11T22:20:22.159Z,695.10
2019-03-11T22:22:27.150Z,684.63
2019-03-11T22:24:34.360Z,665.07
2019-03-11T22:26:39.377Z,655.20
2019-03-11T22:28:44.247Z,633.60
2019-03-11T22:30:49.041Z,636.00
2019-03-11T22:32:53.322Z,621.17
2019-03-11T22:35:11.584Z,615.13
2019-03-11T22:37:06.631Z,600.03
2019-03-11T22:39:10.948Z,592.87
2019-03-11T22:41:15.175Z,748.20
2019-03-11T22:43:20.387Z,997.20
2019-03-11T22:45:24.604Z,948.07
2019-03-11T22:47:29.098Z,832.20
2019-03-11T22:49:33.697Z,701.93
2019-03-11T22:51:39.004Z,759.73
2019-03-11T22:53:45.342Z,1200.63
2019-03-11T22:55:49.877Z,762.93
2019-03-11T22:57:55.482Z,536.17
2019-03-11T23:00:03.486Z,454.17
2019-03-11T23:02:11.908Z,448.10
2019-03-11T23:04:17.329Z,440.43
2019-03-11T23:06:23.113Z,441.17
2019-03-11T23:08:30.132Z,434.60
2019-03-11T23:10:34.837Z,437.93
2019-03-11T23:12:39.318Z,433.53
2019-03-11T23:14:44.877Z,439.67
2019-03-11T23:16:51.692Z,427.33
2019-03-11T23:18:56.543Z,427.33
2019-03-11T23:21:01.541Z,429.67
2019-03-11T23:23:08.748Z,414.67
2019-03-11T23:25:13.372Z,411.97
2019-03-11T23:27:18.249Z,401.43
2019-03-11T23:29:22.482Z,412.63
2019-03-11T23:31:26.935Z,403.33
2019-03-11T23:33:31.785Z,390.63
2019-03-11T23:35:36.005Z,388.47
2019-03-11T23:37:41.238Z,379.10
2019-03-11T23:39:45.627Z,395.83
2019-03-11T23:41:49.822Z,381.57
2019-03-11T23:43:54.554Z,367.70
2019-03-11T23:45:58.763Z,370.87
2019-03-11T23:48:03.480Z,366.13
2019-03-11T23:50:08.844Z,347.03
2019-03-11T23:52:13.184Z,348.77
2019-03-11T23:54:17.694Z,361.50
2019-03-11T23:56:22.249Z,349.93
2019-03-11T23:58:27.710Z,347.47
